createdAt,value
2022-08-17T04:03:07.931Z,93.81
2022-08-17T04:05:36.781Z,94.81
2022-08-17T04:08:05.295Z,94.66
2022-08-17T04:10:33.287Z,95.18
2022-08-17T04:13:06.477Z,94.63
2022-08-17T04:15:34.164Z,96.16
2022-08-17T04:18:02.498Z,96.16
2022-08-17T04:20:31.636Z,95.22
2022-08-17T04:23:02.053Z,94.83
2022-08-17T04:25:32.138Z,95.31
2022-08-17T04:28:00.537Z,94.47
2022-08-17T04:30:31.151Z,94.66
2022-08-17T04:33:07.139Z,93.94
2022-08-17T04:35:44.474Z,93.26
2022-08-17T04:38:15.609Z,94.07
2022-08-17T04:41:03.032Z,93.24
2022-08-17T04:43:32.665Z,93.75
2022-08-17T04:46:02.694Z,96.98
2022-08-17T04:48:36.111Z,96.31
2022-08-17T04:51:10.263Z,97.46
2022-08-17T04:53:39.465Z,97.75
2022-08-17T04:56:07.706Z,96.20
2022-08-17T04:58:39.662Z,95.73
2022-08-17T05:01:08.366Z,97.21
2022-08-17T05:03:36.628Z,96.98
2022-08-17T05:06:04.904Z,96.31
2022-08-17T05:08:33.947Z,96.50
2022-08-17T05:11:03.799Z,95.88
2022-08-17T05:13:31.403Z,96.26
2022-08-17T05:16:00.909Z,95.72
2022-08-17T05:18:30.146Z,96.58
2022-08-17T05:21:01.113Z,97.50
2022-08-17T05:23:34.953Z,97.04
2022-08-17T05:26:26.256Z,97.95
2022-08-17T05:28:58.423Z,96.66
2022-08-17T05:31:28.595Z,97.52
2022-08-17T05:33:56.721Z,98.05
2022-08-17T05:36:41.962Z,96.71
2022-08-17T05:39:16.097Z,96.86
2022-08-17T05:41:46.803Z,96.23
2022-08-17T05:44:14.617Z,95.58
2022-08-17T05:46:48.312Z,95.50
2022-08-17T05:49:19.046Z,97.58
2022-08-17T05:52:20.053Z,98.90
2022-08-17T05:55:04.402Z,98.02
2022-08-17T05:57:51.162Z,100.00
2022-08-17T06:00:29.980Z,98.72
2022-08-17T06:03:16.205Z,99.89
2022-08-17T06:05:55.084Z,100.00
2022-08-17T06:08:31.235Z,100.00
2022-08-17T06:11:10.051Z,100.00
2022-08-17T06:14:05.567Z,100.00
2022-08-17T06:16:37.147Z,99.69
2022-08-17T06:19:10.848Z,99.87
2022-08-17T06:21:43.452Z,98.95
2022-08-17T06:24:25.392Z,98.53
2022-08-17T06:26:54.707Z,97.97
2022-08-17T06:29:37.094Z,98.37
2022-08-17T06:32:05.957Z,97.21
2022-08-17T06:34:34.835Z,97.42
2022-08-17T06:37:15.782Z,96.57
2022-08-17T06:39:54.166Z,96.28
2022-08-17T06:43:04.011Z,95.71
2022-08-17T06:45:25.808Z,94.44
2022-08-17T06:48:00.620Z,93.72
2022-08-17T06:50:35.865Z,92.87
2022-08-17T06:53:11.297Z,91.63
2022-08-17T06:55:46.531Z,90.89
2022-08-17T06:58:16.882Z,90.67
2022-08-17T07:00:48.542Z,90.62
2022-08-17T07:03:27.953Z,89.93
2022-08-17T07:05:59.778Z,89.63
2022-08-17T07:08:35.627Z,89.67
2022-08-17T07:11:07.742Z,90.50
2022-08-17T07:13:44.422Z,90.49
2022-08-17T07:16:25.740Z,91.00
2022-08-17T07:18:55.021Z,90.94
2022-08-17T07:21:41.322Z,90.76
2022-08-17T07:24:29.520Z,91.23
2022-08-17T07:27:07.341Z,90.60
2022-08-17T07:29:40.794Z,90.07
2022-08-17T07:32:12.266Z,90.53
2022-08-17T07:35:11.155Z,89.31
2022-08-17T07:37:43.409Z,88.83
2022-08-17T07:40:22.073Z,88.10
2022-08-17T07:43:05.113Z,87.42
2022-08-17T07:46:08.848Z,87.33
2022-08-17T07:48:39.654Z,86.83
2022-08-17T07:51:17.501Z,86.00
2022-08-17T07:53:45.519Z,85.05
2022-08-17T07:56:34.829Z,85.07
2022-08-17T07:59:15.981Z,84.31
2022-08-17T08:01:48.692Z,83.74
2022-08-17T08:07:28.519Z,81.69
2022-08-17T08:10:08.626Z,82.40
2022-08-17T08:12:38.395Z,82.62
2022-08-17T08:15:18.635Z,81.12
2022-08-17T08:17:50.039Z,80.53
2022-08-17T08:20:51.723Z,78.27
2022-08-17T08:23:18.683Z,77.34
2022-08-17T08:25:57.274Z,74.61
2022-08-17T08:28:30.821Z,76.10
2022-08-17T08:31:06.500Z,75.90
2022-08-17T08:33:45.621Z,74.13
2022-08-17T08:37:12.583Z,71.01
2022-08-17T08:39:27.855Z,73.08
2022-08-17T08:42:07.753Z,71.45
2022-08-17T08:44:59.494Z,70.17
2022-08-17T08:47:51.041Z,65.45
2022-08-17T08:50:36.953Z,67.41
2022-08-17T08:53:21.201Z,65.47
2022-08-17T08:55:54.135Z,63.97
2022-08-17T08:58:42.005Z,63.19
2022-08-17T09:01:22.074Z,64.24
2022-08-17T09:04:20.026Z,61.61
2022-08-17T09:07:00.475Z,64.16
2022-08-17T09:09:43.486Z,64.28
2022-08-17T09:12:21.329Z,63.26
2022-08-17T09:14:59.610Z,63.84
2022-08-17T09:17:37.445Z,63.22
2022-08-17T09:20:28.222Z,63.58
2022-08-17T09:23:02.806Z,61.67
2022-08-17T09:25:43.142Z,61.99
2022-08-17T09:28:19.317Z,63.18
2022-08-17T09:30:50.834Z,64.40
2022-08-17T09:33:26.186Z,65.76
2022-08-17T09:35:59.955Z,65.76
2022-08-17T09:38:33.866Z,65.47
2022-08-17T09:41:12.574Z,62.81
2022-08-17T09:43:47.940Z,64.15
2022-08-17T09:46:20.265Z,64.13
2022-08-17T09:48:55.566Z,61.65
2022-08-17T09:51:31.370Z,61.60
2022-08-17T09:54:20.962Z,60.67
2022-08-17T09:57:25.827Z,62.11
2022-08-17T09:59:58.378Z,61.14
2022-08-17T10:02:44.841Z,57.96
2022-08-17T10:05:17.873Z,58.79
2022-08-17T10:07:55.945Z,59.04
2022-08-17T10:10:30.110Z,59.56
2022-08-17T10:13:06.781Z,58.35
2022-08-17T10:15:50.096Z,59.08
2022-08-17T10:18:33.377Z,57.68
2022-08-17T10:21:21.767Z,56.86
2022-08-17T10:24:11.588Z,57.92
2022-08-17T10:26:56.104Z,54.08
2022-08-17T10:29:49.242Z,53.78
2022-08-17T10:32:26.517Z,55.09
2022-08-17T10:35:30.115Z,55.33
2022-08-17T10:38:26.008Z,55.21
2022-08-17T10:40:58.729Z,55.45
2022-08-17T10:43:38.342Z,55.27
2022-08-17T10:46:31.073Z,53.12
2022-08-17T10:49:25.257Z,52.42
2022-08-17T10:51:55.223Z,51.11
2022-08-17T10:54:38.588Z,51.51
2022-08-17T10:57:37.980Z,51.38
2022-08-17T11:00:36.062Z,51.30
2022-08-17T11:03:17.765Z,50.85
2022-08-17T11:05:59.037Z,50.01
2022-08-17T11:08:46.986Z,49.51
2022-08-17T11:11:39.775Z,47.42
2022-08-17T11:14:23.877Z,46.92
2022-08-17T11:17:09.055Z,45.71
2022-08-17T11:19:55.674Z,47.66
2022-08-17T11:22:43.113Z,46.99
2022-08-17T11:25:16.078Z,49.23
2022-08-17T11:27:45.668Z,48.84
2022-08-17T11:30:16.780Z,48.13
2022-08-17T11:32:53.206Z,48.72
2022-08-17T11:35:38.756Z,48.11
2022-08-17T11:38:17.708Z,48.03
2022-08-17T11:41:10.114Z,47.51
2022-08-17T11:43:57.254Z,47.78
2022-08-17T11:46:57.927Z,46.64
2022-08-17T11:49:55.190Z,46.53
2022-08-17T11:52:46.017Z,46.36
2022-08-17T11:55:50.651Z,46.17
2022-08-17T11:58:38.115Z,45.83
2022-08-17T12:01:08.155Z,45.21
2022-08-17T12:03:53.958Z,45.22
2022-08-17T12:06:31.578Z,45.44
2022-08-17T12:09:08.081Z,46.56
2022-08-17T12:11:55.575Z,45.64
2022-08-17T12:15:08.499Z,45.32
2022-08-17T12:17:39.591Z,45.14
2022-08-17T12:20:15.621Z,45.80
2022-08-17T12:22:56.818Z,45.79
2022-08-17T12:25:35.193Z,45.87
2022-08-17T12:28:06.631Z,44.67
2022-08-17T12:30:38.108Z,44.65
2022-08-17T12:33:25.460Z,44.77
2022-08-17T12:36:00.209Z,45.50
2022-08-17T12:38:32.681Z,45.02
2022-08-17T12:41:25.428Z,44.11
2022-08-17T12:44:03.173Z,44.49
2022-08-17T12:46:34.855Z,43.43
2022-08-17T12:49:14.039Z,43.17
2022-08-17T12:51:46.509Z,42.37
2022-08-17T12:54:29.180Z,42.41
2022-08-17T12:57:02.076Z,41.91
2022-08-17T12:59:33.078Z,42.19
2022-08-17T13:02:01.931Z,42.34
2022-08-17T13:04:29.974Z,42.80
2022-08-17T13:06:59.824Z,43.06
2022-08-17T13:09:40.058Z,42.73
2022-08-17T13:12:09.586Z,42.32
2022-08-17T13:14:37.333Z,42.54
2022-08-17T13:17:11.118Z,42.70
2022-08-17T13:19:49.285Z,42.72
2022-08-17T13:22:18.213Z,43.38
2022-08-17T13:24:54.240Z,42.96
2022-08-17T13:27:26.032Z,43.19
2022-08-17T13:29:57.204Z,42.63
2022-08-17T13:32:41.256Z,42.67
2022-08-17T13:35:50.238Z,41.60
2022-08-17T13:38:40.378Z,42.17
2022-08-17T13:41:08.741Z,43.11
2022-08-17T13:43:45.470Z,42.62
2022-08-17T13:46:20.954Z,41.49
2022-08-17T13:48:59.262Z,41.54
2022-08-17T13:51:36.315Z,41.89
2022-08-17T13:54:07.704Z,42.87
2022-08-17T13:56:41.575Z,42.28
2022-08-17T13:59:14.408Z,41.09
2022-08-17T14:01:47.446Z,41.79
2022-08-17T14:04:23.206Z,41.51
2022-08-17T14:06:54.303Z,41.27
2022-08-17T14:09:24.668Z,41.05
2022-08-17T14:11:54.001Z,41.13
2022-08-17T14:14:35.459Z,40.92
2022-08-17T14:17:12.592Z,42.40
2022-08-17T14:19:41.131Z,41.65
2022-08-17T14:22:15.966Z,42.05
2022-08-17T14:24:45.030Z,42.02
2022-08-17T14:27:13.357Z,42.58
2022-08-17T14:29:42.509Z,43.23
2022-08-17T14:32:18.777Z,44.14
2022-08-17T14:34:49.443Z,43.98
2022-08-17T14:37:18.085Z,43.63
2022-08-17T14:39:46.113Z,43.30
2022-08-17T14:42:15.483Z,43.46
2022-08-17T14:44:44.861Z,43.73
2022-08-17T14:47:15.805Z,44.44
2022-08-17T14:49:47.736Z,46.62
2022-08-17T14:52:21.950Z,48.68
2022-08-17T14:54:51.533Z,49.24
2022-08-17T14:57:25.203Z,49.54
2022-08-17T15:00:03.763Z,50.70
2022-08-17T15:02:31.646Z,52.23
2022-08-17T15:05:01.658Z,48.64
2022-08-17T15:07:31.009Z,48.45
2022-08-17T15:10:00.390Z,48.89
2022-08-17T15:12:33.147Z,54.72
2022-08-17T15:15:04.376Z,59.00
2022-08-17T15:17:54.583Z,61.27
2022-08-17T15:20:23.863Z,60.66
2022-08-17T15:22:54.943Z,61.00
2022-08-17T15:25:23.122Z,61.41
2022-08-17T15:27:51.870Z,61.47
2022-08-17T15:30:22.342Z,63.80
2022-08-17T15:32:54.878Z,61.58
2022-08-17T15:35:27.297Z,63.65
2022-08-17T15:37:57.591Z,66.45
2022-08-17T15:40:25.262Z,66.92
2022-08-17T15:42:53.139Z,70.10
2022-08-17T15:45:26.395Z,70.71
2022-08-17T15:47:54.080Z,73.06
2022-08-17T15:50:22.710Z,71.26
2022-08-17T15:52:56.902Z,71.34
2022-08-17T15:55:25.070Z,72.33
2022-08-17T15:57:53.190Z,72.79
2022-08-17T16:00:28.060Z,73.21
2022-08-17T16:03:46.006Z,73.32
2022-08-17T16:05:46.335Z,72.49
2022-08-17T16:08:20.616Z,73.63
2022-08-17T16:10:49.647Z,73.78
2022-08-17T16:13:19.355Z,74.63
2022-08-17T16:15:57.315Z,74.04
2022-08-17T16:18:32.011Z,75.38
2022-08-17T16:21:23.974Z,77.44
2022-08-17T16:23:58.550Z,77.50
2022-08-17T16:26:27.433Z,78.63
2022-08-17T16:28:56.354Z,78.84
2022-08-17T16:31:27.648Z,77.82
2022-08-17T16:34:16.400Z,77.49
2022-08-17T16:36:55.456Z,79.00
2022-08-17T16:39:27.444Z,76.46
2022-08-17T16:41:57.371Z,76.21
2022-08-17T16:44:32.375Z,77.95
2022-08-17T16:47:01.849Z,78.69
2022-08-17T16:49:36.735Z,77.02
2022-08-17T16:52:12.503Z,76.52
2022-08-17T16:54:43.797Z,73.93
2022-08-17T16:57:12.227Z,73.14
2022-08-17T16:59:42.561Z,73.32
2022-08-17T17:02:15.081Z,72.59
2022-08-17T17:04:51.311Z,72.68
2022-08-17T17:07:34.792Z,71.88
2022-08-17T17:10:08.575Z,68.99
2022-08-17T17:13:02.418Z,68.18
2022-08-17T17:15:33.462Z,68.92
2022-08-17T17:18:07.296Z,68.97
2022-08-17T17:20:45.661Z,69.36
2022-08-17T17:23:29.028Z,69.07
2022-08-17T17:26:10.166Z,68.32
2022-08-17T17:28:44.176Z,68.00
2022-08-17T17:31:17.667Z,67.67
2022-08-17T17:33:50.750Z,67.85
2022-08-17T17:36:25.887Z,67.27
2022-08-17T17:38:59.149Z,67.09
2022-08-17T17:41:34.041Z,66.31
2022-08-17T17:44:06.094Z,66.10
2022-08-17T17:46:39.312Z,67.06
2022-08-17T17:49:11.075Z,66.98
2022-08-17T17:52:07.744Z,67.02
2022-08-17T17:54:51.420Z,66.84
2022-08-17T17:57:29.693Z,66.46
2022-08-17T18:00:04.728Z,66.65
2022-08-17T18:02:51.518Z,66.69
2022-08-17T18:05:49.426Z,66.76
2022-08-17T18:08:34.354Z,66.65
2022-08-17T18:11:23.953Z,66.75
2022-08-17T18:14:06.132Z,66.34
2022-08-17T18:16:35.675Z,66.95
2022-08-17T18:19:03.329Z,67.45
2022-08-17T18:21:39.666Z,67.75
2022-08-17T18:24:10.393Z,68.43
2022-08-17T18:26:46.633Z,68.52
2022-08-17T18:29:31.423Z,69.04
2022-08-17T18:32:23.598Z,69.02
2022-08-17T18:34:56.075Z,69.54
2022-08-17T18:37:46.935Z,70.53
2022-08-17T18:40:35.240Z,71.36
2022-08-17T18:43:24.862Z,71.25
2022-08-17T18:45:54.981Z,72.36
2022-08-17T18:48:32.894Z,72.74
2022-08-17T18:51:06.049Z,73.76
2022-08-17T18:53:40.186Z,73.77
2022-08-17T18:56:24.015Z,74.25
2022-08-17T18:58:58.112Z,74.06
2022-08-17T19:01:46.944Z,73.92
2022-08-17T19:04:34.651Z,74.38
2022-08-17T19:07:11.706Z,73.95
2022-08-17T19:09:45.502Z,74.41
2022-08-17T19:12:27.184Z,74.48
2022-08-17T19:14:57.481Z,75.12
2022-08-17T19:17:33.077Z,75.38
2022-08-17T19:20:06.051Z,75.20
2022-08-17T19:22:45.306Z,75.16
2022-08-17T19:25:19.739Z,75.57
2022-08-17T19:27:57.446Z,76.11
2022-08-17T19:30:26.342Z,75.37
2022-08-17T19:32:55.821Z,75.60
2022-08-17T19:35:28.181Z,75.74
2022-08-17T19:38:05.806Z,75.62
2022-08-17T19:40:58.465Z,76.40
2022-08-17T19:43:36.480Z,76.74
2022-08-17T19:46:15.958Z,76.94
2022-08-17T19:48:52.114Z,77.51
2022-08-17T19:51:28.035Z,77.69
2022-08-17T19:54:06.008Z,78.42
2022-08-17T19:56:47.407Z,78.78
2022-08-17T19:59:25.625Z,79.18
2022-08-17T20:01:58.165Z,79.51
2022-08-17T20:04:36.891Z,80.10
2022-08-17T20:07:10.491Z,80.42
2022-08-17T20:09:41.713Z,80.66
2022-08-17T20:12:14.752Z,79.90
2022-08-17T20:14:55.752Z,80.63
2022-08-17T20:17:26.028Z,80.88
2022-08-17T20:20:04.045Z,82.27
2022-08-17T20:22:46.779Z,83.38
2022-08-17T20:25:29.995Z,84.15
2022-08-17T20:28:05.601Z,82.95
2022-08-17T20:30:38.239Z,82.70
2022-08-17T20:33:08.257Z,82.60
2022-08-17T20:35:41.350Z,83.16
2022-08-17T20:38:11.362Z,85.16
2022-08-17T20:41:02.607Z,83.56
2022-08-17T20:43:51.011Z,83.53
2022-08-17T20:46:50.131Z,83.56
2022-08-17T20:49:27.517Z,83.21
2022-08-17T20:52:07.597Z,82.66
2022-08-17T20:54:49.534Z,83.13
2022-08-17T20:57:47.332Z,83.09
2022-08-17T21:00:47.623Z,83.07
2022-08-17T21:03:49.147Z,83.70
2022-08-17T21:06:23.288Z,83.85
2022-08-17T21:08:55.218Z,85.44
2022-08-17T21:12:02.416Z,86.11
2022-08-17T21:14:44.294Z,85.56
2022-08-17T21:17:40.484Z,86.04
2022-08-17T21:20:23.899Z,87.72
2022-08-17T21:23:05.212Z,88.88
2022-08-17T21:25:52.650Z,89.78
2022-08-17T21:28:34.091Z,90.17
2022-08-17T21:31:08.581Z,90.06
2022-08-17T21:33:39.950Z,90.71
2022-08-17T21:36:27.144Z,90.42
2022-08-17T21:39:03.362Z,90.37
2022-08-17T21:41:34.369Z,90.49
2022-08-17T21:44:12.580Z,89.33
2022-08-17T21:46:43.005Z,90.35
2022-08-17T21:49:18.863Z,89.01
2022-08-17T21:51:50.263Z,88.71
2022-08-17T21:54:27.010Z,89.31
2022-08-17T21:56:55.567Z,91.00
2022-08-17T21:59:27.348Z,90.83
2022-08-17T22:01:57.775Z,91.20
2022-08-17T22:04:30.028Z,91.73
2022-08-17T22:06:59.803Z,92.08
2022-08-17T22:09:31.870Z,91.79
2022-08-17T22:12:05.396Z,91.11
2022-08-17T22:14:51.827Z,91.48
2022-08-17T22:17:24.027Z,91.08
2022-08-17T22:19:56.229Z,91.07
2022-08-17T22:22:29.315Z,91.36
2022-08-17T22:24:59.258Z,92.08
2022-08-17T22:27:48.689Z,92.95
2022-08-17T22:30:29.379Z,92.94
2022-08-17T22:32:57.452Z,93.93
2022-08-17T22:35:43.648Z,95.64
2022-08-17T22:38:33.722Z,96.00
2022-08-17T22:41:21.790Z,95.57
2022-08-17T22:43:50.065Z,95.65
2022-08-17T22:46:21.927Z,94.95
2022-08-17T22:48:52.188Z,94.97
2022-08-17T22:51:23.307Z,95.40
2022-08-17T22:54:10.970Z,94.80
2022-08-17T22:56:56.829Z,95.68
2022-08-17T22:59:43.843Z,98.05
